createdAt,value
2023-02-19T00:00:48.029Z,100577.19
2023-02-19T00:03:59.103Z,100578.00
2023-02-19T00:07:01.344Z,100569.19
2023-02-19T00:10:03.992Z,100563.16
2023-02-19T00:13:06.218Z,100565.53
2023-02-19T00:16:14.383Z,100562.66
2023-02-19T00:19:19.368Z,100566.84
2023-02-19T00:22:21.830Z,100558.03
2023-02-19T00:25:24.057Z,100568.41
2023-02-19T00:28:26.479Z,100565.75
2023-02-19T00:31:32.529Z,100568.75
2023-02-19T00:34:36.124Z,100567.97
2023-02-19T00:37:38.349Z,100570.84
2023-02-19T00:40:40.834Z,100564.84
2023-02-19T00:43:43.054Z,100556.16
2023-02-19T00:46:47.686Z,100551.19
2023-02-19T00:49:49.893Z,100546.28
2023-02-19T00:52:52.378Z,100547.81
2023-02-19T00:55:54.580Z,100549.63
2023-02-19T00:58:57.317Z,100558.94
2023-02-19T01:01:59.615Z,100564.88
2023-02-19T01:05:02.191Z,100574.62
2023-02-19T01:08:04.483Z,100575.59
2023-02-19T01:11:08.731Z,100566.44
2023-02-19T01:14:11.288Z,100556.56
2023-02-19T01:17:13.957Z,100554.63
2023-02-19T01:20:16.499Z,100566.72
2023-02-19T01:23:18.988Z,100562.37
2023-02-19T01:26:25.303Z,100563.59
2023-02-19T01:29:27.926Z,100554.56
2023-02-19T01:32:30.171Z,100557.69
2023-02-19T01:35:33.078Z,100559.72
2023-02-19T01:38:35.277Z,100561.91
2023-02-19T01:41:40.700Z,100569.47
2023-02-19T01:44:42.840Z,100569.53
2023-02-19T01:47:47.060Z,100566.91
2023-02-19T01:50:54.419Z,100563.72
2023-02-19T01:54:01.156Z,100554.34
2023-02-19T01:57:08.116Z,100552.41
2023-02-19T02:00:14.193Z,100556.19
2023-02-19T02:03:17.015Z,100560.56
2023-02-19T02:06:26.027Z,100552.50
2023-02-19T02:09:49.520Z,100546.31
2023-02-19T02:12:57.468Z,100540.91
2023-02-19T02:16:22.120Z,100539.09
2023-02-19T02:19:30.367Z,100549.69
2023-02-19T02:22:49.672Z,100559.19
2023-02-19T02:25:59.921Z,100539.56
2023-02-19T02:29:20.931Z,100535.44
2023-02-19T02:32:33.402Z,100540.28
2023-02-19T02:35:48.758Z,100525.94
2023-02-19T02:38:54.096Z,100526.47
2023-02-19T02:42:18.723Z,100530.47
2023-02-19T02:45:35.907Z,100529.00
2023-02-19T02:48:41.261Z,100539.09
2023-02-19T02:51:49.828Z,100532.84
2023-02-19T02:55:04.379Z,100542.31
2023-02-19T02:58:07.960Z,100539.00
2023-02-19T03:01:43.883Z,100538.03
2023-02-19T03:05:23.889Z,100541.13
2023-02-19T03:08:36.984Z,100552.84
2023-02-19T03:12:02.292Z,100549.19
2023-02-19T03:15:28.191Z,100542.59
2023-02-19T03:18:51.853Z,100543.88
2023-02-19T03:22:24.864Z,100550.25
2023-02-19T03:25:49.980Z,100549.50
2023-02-19T03:29:12.774Z,100553.59
2023-02-19T03:32:23.896Z,100565.91
2023-02-19T03:35:30.559Z,100553.84
2023-02-19T03:38:42.335Z,100550.00
2023-02-19T03:41:57.915Z,100547.06
2023-02-19T03:45:35.194Z,100550.56
2023-02-19T03:49:18.550Z,100551.91
2023-02-19T03:52:37.987Z,100558.41
2023-02-19T03:56:14.166Z,100560.03
2023-02-19T03:59:28.521Z,100555.44
2023-02-19T04:02:44.426Z,100538.72
2023-02-19T04:05:53.394Z,100542.37
2023-02-19T04:09:00.433Z,100542.91
2023-02-19T04:12:06.172Z,100541.66
2023-02-19T04:15:14.636Z,100550.44
2023-02-19T04:18:22.755Z,100561.03
2023-02-19T04:21:26.642Z,100557.84
2023-02-19T04:24:37.741Z,100555.31
2023-02-19T04:27:41.235Z,100552.78
2023-02-19T04:30:44.241Z,100547.47
2023-02-19T04:33:46.885Z,100541.97
2023-02-19T04:36:49.435Z,100547.16
2023-02-19T04:39:51.560Z,100545.16
2023-02-19T04:42:54.054Z,100544.84
2023-02-19T04:46:00.347Z,100540.50
2023-02-19T04:49:03.114Z,100539.34
2023-02-19T04:52:05.300Z,100537.53
2023-02-19T04:55:08.684Z,100550.03
2023-02-19T04:58:10.837Z,100552.78
2023-02-19T05:01:14.640Z,100552.94
2023-02-19T05:04:16.960Z,100545.31
2023-02-19T05:07:19.321Z,100540.75
2023-02-19T05:10:21.545Z,100542.44
2023-02-19T05:13:24.114Z,100550.50
2023-02-19T05:16:26.388Z,100553.66
2023-02-19T05:19:28.873Z,100559.06
2023-02-19T05:22:31.009Z,100555.03
2023-02-19T05:25:33.486Z,100549.00
2023-02-19T05:28:36.040Z,100549.97
2023-02-19T05:31:38.633Z,100550.06
2023-02-19T05:34:40.888Z,100550.38
2023-02-19T05:37:43.348Z,100541.81
2023-02-19T05:40:46.505Z,100541.19
2023-02-19T05:43:49.206Z,100538.09
2023-02-19T05:46:51.410Z,100531.53
2023-02-19T05:49:53.884Z,100528.78
2023-02-19T05:52:56.065Z,100540.09
2023-02-19T05:55:59.019Z,100555.13
2023-02-19T05:59:04.984Z,100563.25
2023-02-19T06:02:07.527Z,100562.72
2023-02-19T06:05:10.817Z,100561.97
2023-02-19T06:08:14.127Z,100562.19
2023-02-19T06:11:17.108Z,100564.31
2023-02-19T06:14:19.280Z,100576.34
2023-02-19T06:17:21.723Z,100569.47
2023-02-19T06:20:26.031Z,100559.94
2023-02-19T06:23:29.827Z,100558.22
2023-02-19T06:26:31.998Z,100547.31
2023-02-19T06:29:34.756Z,100546.16
2023-02-19T06:32:37.049Z,100547.50
2023-02-19T06:35:39.510Z,100535.87
2023-02-19T06:38:42.104Z,100543.25
2023-02-19T06:41:44.587Z,100538.72
2023-02-19T06:44:46.785Z,100532.97
2023-02-19T06:47:49.304Z,100530.53
2023-02-19T06:50:51.491Z,100534.69
2023-02-19T06:53:54.025Z,100536.88
2023-02-19T06:56:58.919Z,100541.84
2023-02-19T07:00:01.400Z,100539.75
2023-02-19T07:03:05.473Z,100536.22
2023-02-19T07:06:08.580Z,100530.62
2023-02-19T07:09:11.248Z,100531.97
2023-02-19T07:12:13.796Z,100545.78
2023-02-19T07:15:15.935Z,100548.06
2023-02-19T07:18:19.288Z,100556.34
2023-02-19T07:21:21.463Z,100555.44
2023-02-19T07:24:23.938Z,100566.66
2023-02-19T07:27:26.084Z,100554.16
2023-02-19T07:30:28.592Z,100544.78
2023-02-19T07:33:30.974Z,100544.91
2023-02-19T07:36:33.441Z,100540.31
2023-02-19T07:39:35.657Z,100541.66
2023-02-19T07:42:38.151Z,100530.78
2023-02-19T07:45:41.150Z,100527.44
2023-02-19T07:48:44.480Z,100525.84
2023-02-19T07:51:46.683Z,100536.06
2023-02-19T07:54:49.240Z,100537.03
2023-02-19T07:57:51.403Z,100547.59
2023-02-19T08:00:53.938Z,100545.06
2023-02-19T08:03:56.461Z,100550.34
2023-02-19T08:06:58.660Z,100565.16
2023-02-19T08:10:20.354Z,100552.88
2023-02-19T08:13:23.504Z,100565.19
2023-02-19T08:16:41.945Z,100559.16
2023-02-19T08:19:44.942Z,100571.34
2023-02-19T08:22:47.424Z,100568.28
2023-02-19T08:25:51.448Z,100563.94
2023-02-19T08:28:53.929Z,100575.44
2023-02-19T08:31:56.137Z,100579.97
2023-02-19T08:34:58.593Z,100587.72
2023-02-19T08:38:00.736Z,100576.00
2023-02-19T08:41:08.868Z,100560.75
2023-02-19T08:44:11.338Z,100561.25
2023-02-19T08:47:13.849Z,100551.50
2023-02-19T08:50:16.056Z,100552.09
2023-02-19T08:53:18.737Z,100552.37
2023-02-19T08:56:21.002Z,100558.94
2023-02-19T08:59:23.787Z,100546.66
2023-02-19T09:02:26.063Z,100553.25
2023-02-19T09:05:28.591Z,100555.16
2023-02-19T09:08:30.852Z,100553.66
2023-02-19T09:11:33.320Z,100548.75
2023-02-19T09:14:36.501Z,100559.78
2023-02-19T09:17:39.172Z,100548.28
2023-02-19T09:20:41.398Z,100554.53
2023-02-19T09:23:43.895Z,100543.81
2023-02-19T09:26:49.709Z,100548.91
2023-02-19T09:29:52.166Z,100546.88
2023-02-19T09:32:54.389Z,100547.84
2023-02-19T09:36:00.401Z,100552.59
2023-02-19T09:39:04.506Z,100544.34
2023-02-19T09:42:20.845Z,100537.78
2023-02-19T09:45:25.974Z,100531.13
2023-02-19T09:48:28.918Z,100531.97
2023-02-19T09:51:34.757Z,100539.47
2023-02-19T09:54:38.645Z,100525.00
2023-02-19T09:57:41.778Z,100530.00
2023-02-19T10:00:48.976Z,100525.25
2023-02-19T10:03:51.524Z,100526.28
2023-02-19T10:06:58.955Z,100509.00
2023-02-19T10:10:21.326Z,100512.06
2023-02-19T10:13:30.357Z,100495.13
2023-02-19T10:16:33.759Z,100483.84
2023-02-19T10:19:36.588Z,100466.94
2023-02-19T10:22:39.136Z,100476.97
2023-02-19T10:25:49.153Z,100479.72
2023-02-19T10:28:51.609Z,100466.72
2023-02-19T10:32:13.381Z,100464.88
2023-02-19T10:35:16.349Z,100461.38
2023-02-19T10:38:23.683Z,100449.38
2023-02-19T10:41:27.947Z,100457.25
2023-02-19T10:44:39.162Z,100438.47
2023-02-19T10:47:46.631Z,100438.47
2023-02-19T10:50:55.961Z,100431.81
2023-02-19T10:54:19.412Z,100422.28
2023-02-19T10:57:29.843Z,100414.03
2023-02-19T11:00:32.381Z,100393.91
2023-02-19T11:03:34.565Z,100395.06
2023-02-19T11:06:37.100Z,100392.87
2023-02-19T11:09:42.659Z,100382.66
2023-02-19T11:12:49.007Z,100362.09
2023-02-19T11:15:54.275Z,100378.31
2023-02-19T11:18:57.310Z,100370.19
2023-02-19T11:22:01.186Z,100361.25
2023-02-19T11:25:15.202Z,100354.84
2023-02-19T11:28:18.176Z,100362.53
2023-02-19T11:31:20.671Z,100349.31
2023-02-19T11:34:30.071Z,100332.28
2023-02-19T11:37:33.084Z,100347.22
2023-02-19T11:40:41.499Z,100346.22
2023-02-19T11:44:08.726Z,100329.88
2023-02-19T11:47:46.417Z,100325.53
2023-02-19T11:51:04.488Z,100303.00
2023-02-19T11:54:29.800Z,100307.72
2023-02-19T11:57:37.925Z,100313.03
2023-02-19T12:00:51.993Z,100329.63
2023-02-19T12:04:32.291Z,100293.16
2023-02-19T12:07:57.374Z,100291.47
2023-02-19T12:11:21.330Z,100280.19
2023-02-19T12:14:42.166Z,100292.13
2023-02-19T12:18:06.499Z,100277.22
2023-02-19T12:21:27.194Z,100274.50
2023-02-19T12:24:51.603Z,100274.25
2023-02-19T12:28:25.598Z,100293.75
2023-02-19T12:31:55.881Z,100276.12
2023-02-19T12:35:32.206Z,100277.09
2023-02-19T12:38:49.288Z,100285.16
2023-02-19T12:42:08.250Z,100267.22
2023-02-19T12:45:25.110Z,100273.91
2023-02-19T12:48:42.997Z,100277.91
2023-02-19T12:51:49.605Z,100274.78
2023-02-19T12:54:55.962Z,100312.69
2023-02-19T12:58:04.417Z,100332.44
2023-02-19T13:01:11.126Z,100343.81
2023-02-19T13:04:29.886Z,100357.25
2023-02-19T13:07:52.954Z,100358.19
2023-02-19T13:11:01.227Z,100337.28
2023-02-19T13:14:30.948Z,100316.53
2023-02-19T13:17:50.685Z,100314.41
2023-02-19T13:20:55.323Z,100292.88
2023-02-19T13:24:03.031Z,100286.97
2023-02-19T13:27:24.067Z,100293.28
2023-02-19T13:30:34.579Z,100297.78
2023-02-19T13:33:36.720Z,100278.59
2023-02-19T13:36:39.844Z,100285.44
2023-02-19T13:40:05.056Z,100274.87
2023-02-19T13:43:24.680Z,100275.78
2023-02-19T13:46:37.193Z,100286.44
2023-02-19T13:49:42.125Z,100302.47
2023-02-19T13:52:44.522Z,100324.16
2023-02-19T13:55:51.967Z,100327.34
2023-02-19T13:59:35.628Z,100337.69
2023-02-19T14:02:38.178Z,100386.66
2023-02-19T14:06:10.968Z,100405.63
2023-02-19T14:09:37.916Z,100380.38
2023-02-19T14:12:40.428Z,100383.22
2023-02-19T14:15:49.040Z,100378.41
2023-02-19T14:18:52.775Z,100397.88
2023-02-19T14:21:55.208Z,100409.50
2023-02-19T14:24:58.597Z,100415.12
2023-02-19T14:28:06.605Z,100419.03
2023-02-19T14:31:11.932Z,100427.19
2023-02-19T14:34:22.493Z,100431.22
2023-02-19T14:37:25.773Z,100442.44
2023-02-19T14:40:36.457Z,100455.72
2023-02-19T14:43:40.173Z,100451.81
2023-02-19T14:47:00.633Z,100466.50
2023-02-19T14:50:13.286Z,100463.28
2023-02-19T14:53:16.743Z,100468.06
2023-02-19T14:56:23.939Z,100466.09
2023-02-19T14:59:30.526Z,100460.66
2023-02-19T15:02:33.057Z,100454.03
2023-02-19T15:05:37.341Z,100458.03
2023-02-19T15:08:45.127Z,100458.03
2023-02-19T15:11:48.167Z,100463.91
2023-02-19T15:14:53.083Z,100472.31
2023-02-19T15:17:56.908Z,100485.53
2023-02-19T15:21:05.685Z,100484.78
2023-02-19T15:24:08.099Z,100493.25
2023-02-19T15:27:24.121Z,100493.56
2023-02-19T15:30:29.529Z,100497.53
2023-02-19T15:33:32.289Z,100501.63
2023-02-19T15:36:35.279Z,100484.19
2023-02-19T15:39:47.160Z,100490.53
2023-02-19T15:42:49.627Z,100480.16
2023-02-19T15:45:56.843Z,100485.25
2023-02-19T15:49:12.466Z,100484.19
2023-02-19T15:52:32.652Z,100481.97
2023-02-19T15:55:45.704Z,100473.38
2023-02-19T15:58:55.894Z,100479.97
2023-02-19T16:02:00.746Z,100490.75
2023-02-19T16:05:12.398Z,100482.72
2023-02-19T16:08:17.661Z,100491.72
2023-02-19T16:11:23.274Z,100497.87
2023-02-19T16:14:31.722Z,100500.19
2023-02-19T16:17:34.455Z,100504.53
2023-02-19T16:20:36.763Z,100512.16
2023-02-19T16:23:48.306Z,100515.53
2023-02-19T16:26:50.964Z,100528.91
2023-02-19T16:29:54.080Z,100524.44
2023-02-19T16:33:31.953Z,100528.78
2023-02-19T16:36:41.517Z,100545.09
2023-02-19T16:39:43.988Z,100549.03
2023-02-19T16:42:49.750Z,100562.56
2023-02-19T16:45:52.004Z,100551.34
2023-02-19T16:48:54.616Z,100568.50
2023-02-19T16:51:59.582Z,100564.69
2023-02-19T16:55:03.751Z,100565.16
2023-02-19T16:58:06.019Z,100546.38
2023-02-19T17:01:08.660Z,100552.69
2023-02-19T17:04:12.640Z,100538.37
2023-02-19T17:07:17.115Z,100544.78
2023-02-19T17:10:24.661Z,100552.22
2023-02-19T17:13:27.199Z,100561.22
2023-02-19T17:16:34.276Z,100570.53
2023-02-19T17:19:37.000Z,100591.78
2023-02-19T17:22:39.241Z,100590.94
2023-02-19T17:25:42.231Z,100574.62
2023-02-19T17:28:44.440Z,100583.03
2023-02-19T17:31:47.118Z,100566.78
2023-02-19T17:34:49.739Z,100582.56
2023-02-19T17:37:53.544Z,100581.59
2023-02-19T17:40:55.777Z,100593.88
2023-02-19T17:43:58.303Z,100597.50
2023-02-19T17:47:01.725Z,100603.53
2023-02-19T17:50:04.760Z,100625.72
2023-02-19T17:53:07.009Z,100626.56
2023-02-19T17:56:11.588Z,100619.47
2023-02-19T17:59:14.805Z,100638.56
2023-02-19T18:02:18.242Z,100644.41
2023-02-19T18:05:21.550Z,100637.03
2023-02-19T18:08:23.733Z,100635.12
2023-02-19T18:11:26.213Z,100635.72
2023-02-19T18:14:28.360Z,100633.16
2023-02-19T18:17:30.988Z,100636.94
2023-02-19T18:20:33.228Z,100657.91
2023-02-19T18:23:36.207Z,100656.94
2023-02-19T18:26:38.386Z,100668.47
2023-02-19T18:29:41.028Z,100677.78
2023-02-19T18:32:43.570Z,100698.37
2023-02-19T18:35:49.182Z,100704.50
2023-02-19T18:38:51.451Z,100698.84
2023-02-19T18:41:54.037Z,100713.84
2023-02-19T18:44:56.397Z,100733.56
2023-02-19T18:47:58.902Z,100737.53
2023-02-19T18:51:01.489Z,100739.72
2023-02-19T18:54:04.882Z,100744.34
2023-02-19T18:57:08.698Z,100754.84
2023-02-19T19:00:17.392Z,100759.66
2023-02-19T19:03:19.926Z,100769.00
2023-02-19T19:06:22.486Z,100778.84
2023-02-19T19:09:24.786Z,100778.84
2023-02-19T19:12:27.256Z,100786.50
2023-02-19T19:15:29.636Z,100794.53
2023-02-19T19:18:32.264Z,100798.12
2023-02-19T19:21:34.616Z,100785.19
2023-02-19T19:24:37.197Z,100777.25
2023-02-19T19:27:39.486Z,100776.66
2023-02-19T19:30:42.196Z,100785.25
2023-02-19T19:33:46.728Z,100773.56
2023-02-19T19:36:49.349Z,100779.03
2023-02-19T19:39:51.783Z,100785.78
2023-02-19T19:42:54.398Z,100773.97
2023-02-19T19:45:57.091Z,100779.13
2023-02-19T19:48:59.993Z,100799.66
2023-02-19T19:52:02.286Z,100789.94
2023-02-19T19:55:06.051Z,100800.38
2023-02-19T19:58:08.330Z,100812.91
2023-02-19T20:01:11.398Z,100803.44
2023-02-19T20:04:14.091Z,100821.16
2023-02-19T20:07:16.474Z,100820.66
2023-02-19T20:10:19.975Z,100825.50
2023-02-19T20:13:26.394Z,100843.03
2023-02-19T20:16:28.977Z,100860.56
2023-02-19T20:19:31.296Z,100859.72
2023-02-19T20:22:36.346Z,100875.13
2023-02-19T20:25:38.685Z,100883.03
2023-02-19T20:28:45.145Z,100882.62
2023-02-19T20:31:51.812Z,100903.38
2023-02-19T20:34:54.407Z,100913.25
2023-02-19T20:37:56.807Z,100926.38
2023-02-19T20:40:59.627Z,100932.13
2023-02-19T20:44:02.152Z,100940.22
2023-02-19T20:47:04.939Z,100943.34
2023-02-19T20:50:07.788Z,100963.09
2023-02-19T20:53:10.772Z,100961.63
2023-02-19T20:56:13.449Z,100968.16
2023-02-19T20:59:17.518Z,100970.88
2023-02-19T21:02:24.746Z,100972.25
2023-02-19T21:05:27.408Z,100979.78
2023-02-19T21:08:29.935Z,100966.53
2023-02-19T21:11:32.868Z,100980.59
2023-02-19T21:14:35.152Z,100986.00
2023-02-19T21:17:37.790Z,100991.59
2023-02-19T21:20:40.186Z,100991.34
2023-02-19T21:23:42.765Z,100980.38
2023-02-19T21:26:45.128Z,100981.53
2023-02-19T21:29:48.008Z,100986.72
2023-02-19T21:32:50.272Z,100978.53
2023-02-19T21:35:52.879Z,100997.00
2023-02-19T21:38:55.118Z,101000.72
2023-02-19T21:41:58.690Z,101011.03
2023-02-19T21:45:00.869Z,101005.47
2023-02-19T21:48:03.477Z,100980.22
2023-02-19T21:51:05.953Z,101002.59
2023-02-19T21:54:13.181Z,100992.47
2023-02-19T21:57:15.446Z,100983.88
2023-02-19T22:00:18.241Z,100994.66
2023-02-19T22:03:20.863Z,100993.00
2023-02-19T22:06:26.473Z,101000.22
2023-02-19T22:09:30.377Z,100996.72
2023-02-19T22:12:32.567Z,101015.47
2023-02-19T22:15:35.098Z,101017.50
2023-02-19T22:18:37.236Z,101011.38
2023-02-19T22:21:44.014Z,101025.62
2023-02-19T22:24:46.210Z,101027.66
2023-02-19T22:27:49.061Z,101022.72
2023-02-19T22:30:51.266Z,101043.81
2023-02-19T22:33:55.719Z,101044.13
2023-02-19T22:36:58.076Z,101058.38
2023-02-19T22:40:00.914Z,101059.59
2023-02-19T22:43:03.752Z,101054.53
2023-02-19T22:46:19.160Z,101061.69
2023-02-19T22:49:22.536Z,101060.34
2023-02-19T22:52:28.206Z,101063.06
2023-02-19T22:55:31.080Z,101079.56
2023-02-19T22:58:33.608Z,101079.12
2023-02-19T23:01:35.865Z,101082.72
2023-02-19T23:04:38.453Z,101091.84
2023-02-19T23:07:45.264Z,101098.59
2023-02-19T23:10:47.795Z,101110.56
2023-02-19T23:13:50.145Z,101114.34
2023-02-19T23:16:52.676Z,101103.72
2023-02-19T23:19:54.889Z,101110.63
2023-02-19T23:22:57.720Z,101120.34
2023-02-19T23:25:59.975Z,101132.31
2023-02-19T23:29:03.325Z,101139.38
2023-02-19T23:32:05.616Z,101137.84
2023-02-19T23:35:08.255Z,101143.91
2023-02-19T23:38:10.544Z,101146.69
2023-02-19T23:41:16.070Z,101156.97
2023-02-19T23:44:19.290Z,101163.47
2023-02-19T23:47:22.483Z,101171.19
2023-02-19T23:50:24.794Z,101166.22
2023-02-19T23:53:27.372Z,101174.28
2023-02-19T23:56:29.805Z,101176.72
2023-02-19T23:59:32.479Z,101176.09
